Airport ID:KE16
Update Time (UTC):16 JAN 19 20:41
Wind Speed (Knots):15
Wind Direction (Magnetic):120
Temperature (°C):15
Dew Point (°C):9
Humidity (%):71
Altimeter (inHg):29.91
Density Altitude (Feet):
Visibility (Miles):10
Clouds (Hundreds of feet):OVC046
Present Weather:
METAR:METAR KE16 162040Z AUTO 13014G17KT 10SM OVC046 15/10 A2991 RMK AO2 PWINO PNO

The data displayed is for advisory purposes only and is not to be used for flight planning or operations.

This page is not automatically refreshed. Reload the page to see current data.